Time;durP1;ratioP1;P1;durP2;ratioP2;P2;SDS_P1;SDS_P2;PMS_P1;PMS_P2;Temp;Humidity;BMP_temperature;BMP_pressure;BME280_temperature;BME280_humidity;BME280_pressure;Samples;Min_cycle;Max_cycle;Signal;HPM_P1;HPM_P2
2023/06/02 00:02:29;;;;;;;15.77;4.07;;;11.10;99.90;;;;;;6274710;22;20087;-79
2023/06/02 00:04:57;;;;;;;12.88;2.60;;;11.10;99.90;;;;;;6250116;22;20008;-78
2023/06/02 00:07:25;;;;;;;11.20;2.55;;;11.10;99.90;;;;;;6249493;22;20085;-78
2023/06/02 00:09:51;;;;;;;13.65;3.25;;;11.10;99.90;;;;;;6275628;22;20008;-79
2023/06/02 00:12:17;;;;;;;11.95;2.50;;;11.10;99.90;;;;;;6247801;22;20321;-80
2023/06/02 00:14:42;;;;;;;14.18;2.53;;;11.10;99.90;;;;;;6301683;22;20039;-79
2023/06/02 00:17:10;;;;;;;13.15;2.72;;;11.10;99.90;;;;;;6248778;22;20018;-80
2023/06/02 00:19:42;;;;;;;15.13;3.13;;;11.10;99.90;;;;;;6275513;22;20450;-79
2023/06/02 00:22:09;;;;;;;10.30;2.08;;;11.00;99.90;;;;;;6274751;22;20015;-79
2023/06/02 00:24:35;;;;;;;14.57;2.70;;;11.00;99.90;;;;;;6249230;22;20010;-79
2023/06/02 00:27:00;;;;;;;17.05;3.05;;;11.00;99.90;;;;;;6275412;22;20082;-79
2023/06/02 00:29:26;;;;;;;9.85;2.28;;;11.00;99.90;;;;;;6275508;22;20042;-80
2023/06/02 00:31:51;;;;;;;14.30;2.55;;;11.00;99.90;;;;;;6326846;22;20095;-79
2023/06/02 00:34:17;;;;;;;15.75;2.97;;;11.00;99.90;;;;;;6327582;22;20062;-79
2023/06/02 00:36:43;;;;;;;12.32;2.47;;;11.00;99.90;;;;;;6274822;22;20008;-80
2023/06/02 00:39:08;;;;;;;12.25;2.45;;;11.00;99.90;;;;;;6277189;22;20004;-78
2023/06/02 00:41:34;;;;;;;15.15;3.15;;;11.00;99.90;;;;;;6249117;22;20420;-79
2023/06/02 00:43:59;;;;;;;16.98;2.70;;;11.00;99.90;;;;;;6275619;22;20008;-78
2023/06/02 00:46:25;;;;;;;14.85;2.50;;;11.00;99.90;;;;;;6274224;22;20464;-78
2023/06/02 00:48:51;;;;;;;12.95;2.40;;;11.00;99.90;;;;;;6275234;22;20012;-77
2023/06/02 00:51:18;;;;;;;12.50;2.60;;;11.00;99.90;;;;;;6249342;22;20353;-78
2023/06/02 00:53:45;;;;;;;9.45;2.25;;;10.90;99.90;;;;;;6288506;22;20322;-79
2023/06/02 00:56:16;;;;;;;13.60;2.17;;;10.90;99.90;;;;;;6274690;22;20019;-78
2023/06/02 00:58:45;;;;;;;9.70;2.15;;;10.90;99.90;;;;;;6275312;22;20086;-78
2023/06/02 01:01:18;;;;;;;11.43;2.55;;;10.90;99.90;;;;;;6300523;22;20012;-77
2023/06/02 01:03:46;;;;;;;13.23;2.70;;;10.90;99.90;;;;;;6274540;22;20012;-77
2023/06/02 01:06:13;;;;;;;16.40;2.65;;;10.90;99.90;;;;;;6274561;22;20456;-77
2023/06/02 01:08:40;;;;;;;13.25;2.53;;;10.90;99.90;;;;;;6276963;22;20015;-77
2023/06/02 01:11:07;;;;;;;11.15;2.55;;;10.90;99.90;;;;;;6276707;22;20087;-77
2023/06/02 01:13:34;;;;;;;15.30;3.20;;;10.90;99.90;;;;;;6300914;22;20008;-77
2023/06/02 01:15:59;;;;;;;14.10;2.90;;;10.90;99.90;;;;;;6274108;22;20012;-77
2023/06/02 01:18:29;;;;;;;10.25;2.50;;;10.80;99.90;;;;;;6224468;22;20030;-77
2023/06/02 01:21:01;;;;;;;10.85;2.55;;;10.80;99.90;;;;;;6275077;22;20015;-77
2023/06/02 01:23:36;;;;;;;8.57;2.38;;;10.80;99.90;;;;;;6275020;22;20074;-77
2023/06/02 01:26:05;;;;;;;18.85;2.80;;;10.80;99.90;;;;;;6327022;22;20012;-78
2023/06/02 01:28:31;;;;;;;15.40;2.60;;;10.80;99.90;;;;;;6276483;22;20019;-77
2023/06/02 01:31:06;;;;;;;12.25;2.40;;;10.80;99.90;;;;;;6274989;22;20134;-77
2023/06/02 01:33:46;;;;;;;10.82;2.78;;;10.70;99.90;;;;;;6274851;22;20023;-77
2023/06/02 01:36:13;;;;;;;14.82;2.15;;;10.70;99.90;;;;;;6276340;22;20012;-78
2023/06/02 01:38:41;;;;;;;14.10;2.42;;;10.70;99.90;;;;;;6275027;22;20425;-78
2023/06/02 01:41:07;;;;;;;11.32;2.53;;;10.60;99.90;;;;;;6249378;22;20356;-78
2023/06/02 01:43:34;;;;;;;15.85;2.50;;;10.70;99.90;;;;;;6274821;22;20008;-77
2023/06/02 01:46:01;;;;;;;13.65;2.85;;;10.70;99.90;;;;;;6247983;22;20015;-77
2023/06/02 01:48:29;;;;;;;17.20;3.35;;;10.70;99.90;;;;;;6274882;22;20087;-78
2023/06/02 01:50:55;;;;;;;10.90;2.00;;;10.70;99.90;;;;;;6273718;22;20043;-79
2023/06/02 01:53:20;;;;;;;9.70;2.22;;;10.70;99.90;;;;;;6274560;22;20022;-79
2023/06/02 01:55:49;;;;;;;9.80;2.08;;;10.70;99.90;;;;;;6327695;22;20011;-78
2023/06/02 01:58:15;;;;;;;12.13;2.50;;;10.70;99.90;;;;;;6302360;22;20345;-77
2023/06/02 02:00:40;;;;;;;12.93;2.70;;;10.70;99.90;;;;;;6302701;22;20101;-78
2023/06/02 02:03:06;;;;;;;11.55;2.25;;;10.70;99.90;;;;;;6250943;22;20453;-78
2023/06/02 02:05:31;;;;;;;12.13;2.50;;;10.70;99.90;;;;;;6250449;22;20082;-78
2023/06/02 02:07:57;;;;;;;12.77;2.35;;;10.70;99.90;;;;;;6251292;22;20015;-80
2023/06/02 02:10:23;;;;;;;10.80;2.72;;;10.70;99.90;;;;;;6329015;22;20038;-78
2023/06/02 02:12:48;;;;;;;12.88;2.38;;;10.70;99.90;;;;;;6276811;22;20019;-79
2023/06/02 02:15:15;;;;;;;12.48;2.40;;;10.70;99.90;;;;;;6301848;22;20008;-78
2023/06/02 02:17:45;;;;;;;12.23;2.53;;;10.70;99.90;;;;;;6277644;22;20078;-77
2023/06/02 02:20:16;;;;;;;12.20;3.08;;;10.70;99.90;;;;;;6276422;22;20102;-78
2023/06/02 02:22:42;;;;;;;13.25;2.83;;;10.70;99.90;;;;;;6276130;22;20119;-77
2023/06/02 02:25:08;;;;;;;16.60;2.95;;;10.70;99.90;;;;;;6302198;22;20012;-78
2023/06/02 02:27:35;;;;;;;10.05;2.80;;;10.80;99.90;;;;;;6328420;22;20054;-78
2023/06/02 02:30:03;;;;;;;12.27;2.40;;;10.80;99.90;;;;;;6250188;22;20015;-78
2023/06/02 02:32:29;;;;;;;13.23;3.15;;;10.80;99.90;;;;;;6275921;22;20014;-78
2023/06/02 02:34:55;;;;;;;14.02;2.85;;;10.70;99.90;;;;;;6276453;22;20023;-77
2023/06/02 02:37:21;;;;;;;12.95;2.42;;;10.80;99.90;;;;;;6250963;22;20016;-77
2023/06/02 02:39:46;;;;;;;13.57;2.33;;;10.80;99.90;;;;;;6276548;22;20341;-78
2023/06/02 02:42:12;;;;;;;12.82;2.33;;;10.80;99.90;;;;;;6302261;22;20011;-78
2023/06/02 02:44:38;;;;;;;11.30;2.20;;;10.80;99.90;;;;;;6302091;22;20012;-78
2023/06/02 02:47:04;;;;;;;12.57;2.53;;;10.80;99.90;;;;;;6277809;22;20453;-77
2023/06/02 02:49:29;;;;;;;11.80;2.38;;;10.80;99.90;;;;;;6300948;22;20047;-78
2023/06/02 02:51:56;;;;;;;12.32;3.00;;;10.80;99.90;;;;;;6328113;22;20031;-77
2023/06/02 02:54:22;;;;;;;12.30;2.25;;;10.80;99.90;;;;;;6276728;22;20016;-79
2023/06/02 02:56:48;;;;;;;12.27;2.45;;;10.90;99.90;;;;;;6250723;22;20012;-80
2023/06/02 02:59:15;;;;;;;11.15;2.13;;;10.80;99.90;;;;;;6276759;22;20027;-79
2023/06/02 03:01:43;;;;;;;12.35;2.45;;;10.80;99.90;;;;;;6250680;22;20118;-79
2023/06/02 03:04:11;;;;;;;15.85;2.92;;;10.80;99.90;;;;;;6277675;22;20058;-77
2023/06/02 03:06:40;;;;;;;9.70;2.22;;;10.90;99.90;;;;;;6275926;22;20055;-78
2023/06/02 03:09:09;;;;;;;10.88;2.35;;;10.80;99.90;;;;;;6250723;22;20051;-78
2023/06/02 03:11:35;;;;;;;13.95;2.78;;;10.80;99.90;;;;;;6276590;22;20026;-78
2023/06/02 03:14:01;;;;;;;14.20;2.70;;;10.80;99.90;;;;;;6276494;22;20008;-77
2023/06/02 03:16:28;;;;;;;13.07;2.40;;;10.80;99.90;;;;;;6277860;22;20016;-77
2023/06/02 03:18:55;;;;;;;11.05;2.05;;;10.90;99.90;;;;;;6301975;22;20046;-77
2023/06/02 03:21:22;;;;;;;11.13;3.35;;;10.90;99.90;;;;;;6277147;22;20008;-77
2023/06/02 03:23:49;;;;;;;14.25;2.92;;;10.90;99.90;;;;;;6276684;22;20042;-77
2023/06/02 03:26:15;;;;;;;11.88;2.25;;;10.90;99.90;;;;;;6250425;22;20413;-78
2023/06/02 03:28:42;;;;;;;11.80;2.25;;;10.90;99.90;;;;;;6277513;22;20022;-77
2023/06/02 03:31:11;;;;;;;10.85;2.88;;;10.90;99.90;;;;;;6250485;22;20012;-78
2023/06/02 03:33:36;;;;;;;10.60;2.72;;;10.90;99.90;;;;;;6250330;22;20552;-77
2023/06/02 03:36:02;;;;;;;11.10;2.20;;;10.90;99.90;;;;;;6327565;22;20047;-77
2023/06/02 03:38:28;;;;;;;12.27;2.63;;;10.90;99.90;;;;;;6301418;22;20008;-77
2023/06/02 03:40:53;;;;;;;13.48;2.60;;;10.90;99.90;;;;;;6328002;22;20012;-77
2023/06/02 03:43:19;;;;;;;12.30;2.38;;;10.90;99.90;;;;;;6276275;22;20042;-78
2023/06/02 03:45:45;;;;;;;9.95;2.47;;;11.00;99.90;;;;;;6276138;22;20050;-78
2023/06/02 03:48:11;;;;;;;11.95;2.40;;;10.90;99.90;;;;;;6276359;22;20023;-78
2023/06/02 03:50:38;;;;;;;12.05;2.78;;;10.90;99.90;;;;;;6300763;22;20020;-78
2023/06/02 03:53:05;;;;;;;12.32;2.40;;;11.00;99.90;;;;;;6301582;22;20016;-78
2023/06/02 03:55:30;;;;;;;12.98;2.30;;;11.00;99.90;;;;;;6277348;22;20050;-78
2023/06/02 03:57:56;;;;;;;10.05;2.42;;;11.00;99.90;;;;;;6327521;22;20011;-78
2023/06/02 04:00:22;;;;;;;13.90;2.70;;;11.00;99.90;;;;;;6275761;22;20480;-78
2023/06/02 04:02:47;;;;;;;14.00;2.75;;;11.00;99.90;;;;;;6250155;22;20086;-77
2023/06/02 04:05:14;;;;;;;14.93;2.42;;;11.00;99.90;;;;;;6327411;22;20377;-78
2023/06/02 04:07:40;;;;;;;11.13;2.67;;;11.00;99.90;;;;;;6277157;22;20454;-79
2023/06/02 04:10:06;;;;;;;9.52;2.10;;;11.00;99.90;;;;;;6327918;22;20023;-78
2023/06/02 04:12:32;;;;;;;11.55;2.53;;;11.00;99.90;;;;;;6250002;22;20015;-78
2023/06/02 04:14:58;;;;;;;13.85;3.22;;;11.00;99.90;;;;;;6275512;22;20012;-78
2023/06/02 04:17:25;;;;;;;10.90;2.28;;;11.10;99.90;;;;;;6249444;22;20111;-78
2023/06/02 04:19:52;;;;;;;16.90;3.22;;;11.10;99.90;;;;;;6327902;22;20012;-78
2023/06/02 04:22:18;;;;;;;13.85;2.65;;;11.10;99.90;;;;;;6249490;22;20008;-78
2023/06/02 04:24:45;;;;;;;11.88;2.75;;;11.10;99.90;;;;;;6275871;22;20064;-78
2023/06/02 04:27:10;;;;;;;14.73;2.50;;;11.10;99.90;;;;;;6275878;22;20425;-78
2023/06/02 04:29:37;;;;;;;16.35;2.78;;;11.20;99.90;;;;;;6327149;22;20069;-79
2023/06/02 04:32:04;;;;;;;14.80;2.97;;;11.10;99.90;;;;;;6301655;22;20070;-79
2023/06/02 04:34:31;;;;;;;17.02;3.53;;;11.10;99.90;;;;;;6277293;22;20011;-79
2023/06/02 04:36:57;;;;;;;12.48;2.60;;;11.10;99.90;;;;;;6275204;22;20353;-78
2023/06/02 04:39:23;;;;;;;17.33;2.60;;;11.10;99.90;;;;;;6275864;22;20014;-78
2023/06/02 04:41:49;;;;;;;9.65;2.08;;;11.20;99.90;;;;;;6249767;22;20014;-78
2023/06/02 04:44:16;;;;;;;14.98;3.53;;;11.20;99.90;;;;;;6275356;22;20012;-79
2023/06/02 04:46:42;;;;;;;15.00;3.08;;;11.20;99.90;;;;;;6274952;22;20393;-78
2023/06/02 04:49:09;;;;;;;12.60;2.50;;;11.20;99.90;;;;;;6275334;22;20047;-78
2023/06/02 04:51:35;;;;;;;13.18;2.88;;;11.20;99.90;;;;;;6274710;22;20030;-78
2023/06/02 04:54:01;;;;;;;12.20;2.10;;;11.20;99.90;;;;;;6275747;22;20054;-79
2023/06/02 04:56:27;;;;;;;11.73;2.55;;;11.20;99.90;;;;;;6249493;22;20024;-78
2023/06/02 04:58:53;;;;;;;14.43;2.75;;;11.30;99.90;;;;;;6277063;22;20008;-78
2023/06/02 05:01:18;;;;;;;14.10;2.58;;;11.20;99.90;;;;;;6274398;22;20026;-78
2023/06/02 05:03:44;;;;;;;12.93;2.67;;;11.30;99.90;;;;;;6300745;22;20007;-78
2023/06/02 05:06:10;;;;;;;12.30;2.30;;;11.30;99.90;;;;;;6300567;22;20028;-78
2023/06/02 05:08:35;;;;;;;13.98;3.63;;;11.30;99.90;;;;;;6300758;22;20082;-78
2023/06/02 05:11:02;;;;;;;12.15;2.20;;;11.30;99.90;;;;;;6249457;22;20086;-79
2023/06/02 05:13:28;;;;;;;9.38;2.03;;;11.30;99.90;;;;;;6276996;22;20018;-79
2023/06/02 05:15:57;;;;;;;16.35;2.88;;;11.40;99.90;;;;;;6275221;22;20073;-79
2023/06/02 05:18:23;;;;;;;14.38;2.80;;;11.40;99.90;;;;;;6300758;22;20019;-79
2023/06/02 05:20:50;;;;;;;14.20;2.80;;;11.40;99.90;;;;;;6274317;22;20008;-79
2023/06/02 05:23:17;;;;;;;15.98;2.42;;;11.40;99.90;;;;;;6275059;22;20082;-79
2023/06/02 05:25:42;;;;;;;12.93;2.50;;;11.40;99.90;;;;;;6275326;22;20082;-79
2023/06/02 05:28:08;;;;;;;16.02;3.63;;;11.50;99.90;;;;;;6326937;22;20042;-79
2023/06/02 05:30:35;;;;;;;14.43;3.03;;;11.50;99.90;;;;;;6300767;22;20008;-79
2023/06/02 05:33:00;;;;;;;16.52;3.20;;;11.50;99.90;;;;;;6249361;22;20338;-79
2023/06/02 05:35:26;;;;;;;15.13;3.03;;;11.50;99.90;;;;;;6249484;22;20015;-79
2023/06/02 05:37:51;;;;;;;16.27;2.60;;;11.50;99.90;;;;;;6274982;22;20023;-79
2023/06/02 05:40:17;;;;;;;17.52;3.22;;;11.60;99.90;;;;;;6274903;22;20091;-79
2023/06/02 05:42:43;;;;;;;17.05;3.20;;;11.60;99.90;;;;;;6327112;22;20014;-79
2023/06/02 05:45:09;;;;;;;11.80;2.72;;;11.70;99.90;;;;;;6326765;22;20008;-79
2023/06/02 05:47:34;;;;;;;16.15;3.03;;;11.60;99.90;;;;;;6274756;22;20091;-78
2023/06/02 05:50:00;;;;;;;17.05;3.22;;;11.70;99.90;;;;;;6274850;22;20473;-79
2023/06/02 05:52:25;;;;;;;13.90;3.30;;;11.70;99.90;;;;;;6299557;22;20015;-78
2023/06/02 05:54:51;;;;;;;14.88;2.90;;;11.80;99.90;;;;;;6249167;22;20012;-79
2023/06/02 05:57:19;;;;;;;19.13;3.58;;;11.80;99.90;;;;;;6275085;22;20061;-79
2023/06/02 05:59:46;;;;;;;19.88;3.35;;;11.80;99.90;;;;;;6300612;22;20461;-79
2023/06/02 06:02:12;;;;;;;12.38;3.10;;;11.80;99.90;;;;;;6300630;22;20344;-79
2023/06/02 06:04:38;;;;;;;17.20;3.40;;;11.90;99.90;;;;;;6326717;22;20043;-79
2023/06/02 06:07:04;;;;;;;21.90;3.55;;;11.90;99.90;;;;;;6274471;22;20049;-79
2023/06/02 06:09:30;;;;;;;14.95;2.65;;;11.90;99.90;;;;;;6249316;22;20026;-79
2023/06/02 06:11:55;;;;;;;22.25;4.30;;;11.90;99.90;;;;;;6326811;22;20012;-79
2023/06/02 06:14:21;;;;;;;13.63;3.65;;;12.00;99.90;;;;;;6300436;22;20082;-78
2023/06/02 06:16:47;;;;;;;18.75;3.97;;;12.00;99.90;;;;;;6276431;22;20020;-79
2023/06/02 06:19:12;;;;;;;21.50;4.15;;;12.10;99.90;;;;;;6274031;22;20039;-79
2023/06/02 06:21:38;;;;;;;18.60;3.67;;;12.10;99.90;;;;;;6298904;22;20012;-78
2023/06/02 06:24:05;;;;;;;19.55;3.88;;;12.10;99.90;;;;;;6274801;22;20015;-78
2023/06/02 06:26:30;;;;;;;18.08;3.72;;;12.20;99.90;;;;;;6275034;22;20011;-79
2023/06/02 06:28:56;;;;;;;21.52;3.92;;;12.20;99.90;;;;;;6299401;22;20020;-78
2023/06/02 06:31:22;;;;;;;16.75;3.28;;;12.30;99.90;;;;;;6300393;22;20047;-78
2023/06/02 06:33:47;;;;;;;20.48;4.50;;;12.30;99.90;;;;;;6300465;22;20014;-78
2023/06/02 06:36:13;;;;;;;22.90;3.85;;;12.40;99.90;;;;;;6274510;22;20464;-78
2023/06/02 06:38:40;;;;;;;13.68;3.55;;;12.50;99.90;;;;;;6274812;22;20460;-78
2023/06/02 06:41:06;;;;;;;24.52;3.85;;;12.60;99.90;;;;;;6276068;22;20141;-78
2023/06/02 06:43:31;;;;;;;18.95;4.85;;;12.60;99.90;;;;;;6276937;22;20461;-78
2023/06/02 06:45:59;;;;;;;23.17;3.95;;;12.70;99.90;;;;;;6302179;22;20011;-78
2023/06/02 06:48:24;;;;;;;20.80;4.25;;;12.80;99.90;;;;;;6278208;22;20398;-78
2023/06/02 06:50:50;;;;;;;18.15;4.07;;;12.80;99.90;;;;;;6327123;22;20016;-78
2023/06/02 06:53:16;;;;;;;20.77;3.92;;;12.90;99.90;;;;;;6327618;22;20007;-78
2023/06/02 06:55:41;;;;;;;19.23;4.35;;;13.00;99.90;;;;;;6302030;22;20016;-78
2023/06/02 06:58:07;;;;;;;21.48;4.35;;;13.00;99.90;;;;;;6276571;22;20314;-78
2023/06/02 07:00:32;;;;;;;23.30;4.68;;;13.20;99.90;;;;;;6250834;22;20007;-78
2023/06/02 07:02:58;;;;;;;21.63;4.25;;;13.20;99.90;;;;;;6301921;22;20011;-79
2023/06/02 07:05:23;;;;;;;19.83;4.97;;;13.30;99.90;;;;;;6250483;22;20016;-78
2023/06/02 07:07:49;;;;;;;25.63;5.05;;;13.30;99.90;;;;;;6327919;22;20022;-78
2023/06/02 07:10:15;;;;;;;21.58;4.82;;;13.40;99.90;;;;;;6250626;22;20018;-78
2023/06/02 07:12:41;;;;;;;19.25;5.00;;;13.40;99.90;;;;;;6327972;22;20133;-79
2023/06/02 07:15:07;;;;;;;21.85;4.40;;;13.50;99.90;;;;;;6328384;22;20186;-78
2023/06/02 07:17:33;;;;;;;17.63;4.00;;;13.60;99.90;;;;;;6275992;22;20018;-78
2023/06/02 07:19:58;;;;;;;16.27;4.25;;;13.70;99.90;;;;;;6302015;22;20086;-79
2023/06/02 07:22:24;;;;;;;20.52;4.40;;;14.10;99.90;;;;;;6250031;22;20008;-78
2023/06/02 07:24:51;;;;;;;18.20;4.30;;;14.10;99.90;;;;;;6250695;22;20011;-78
2023/06/02 07:27:16;;;;;;;22.95;5.05;;;14.20;99.90;;;;;;6250386;22;20012;-79
2023/06/02 07:29:42;;;;;;;17.77;3.92;;;14.20;99.90;;;;;;6301718;22;20514;-78
2023/06/02 07:32:08;;;;;;;18.48;4.88;;;14.20;99.90;;;;;;6275998;22;20019;-78
2023/06/02 07:34:34;;;;;;;16.40;4.82;;;14.10;99.90;;;;;;6276402;22;20346;-78
2023/06/02 07:37:02;;;;;;;17.52;4.63;;;14.20;99.90;;;;;;6250152;22;20011;-79
2023/06/02 07:39:28;;;;;;;20.77;5.00;;;14.20;99.90;;;;;;6301759;22;20099;-78
2023/06/02 07:41:53;;;;;;;22.50;4.32;;;14.20;99.90;;;;;;6250402;22;20386;-78
2023/06/02 07:44:19;;;;;;;21.42;4.82;;;14.30;99.90;;;;;;6277739;22;20319;-78
2023/06/02 07:46:45;;;;;;;17.60;4.07;;;14.30;99.90;;;;;;6328086;22;20434;-78
2023/06/02 07:49:12;;;;;;;17.48;3.83;;;14.60;99.90;;;;;;6277686;22;20011;-78
2023/06/02 07:51:38;;;;;;;22.10;4.20;;;14.80;99.90;;;;;;6275233;22;20095;-78
2023/06/02 07:54:05;;;;;;;16.95;3.70;;;14.90;99.90;;;;;;6250289;22;20022;-77
2023/06/02 07:56:31;;;;;;;19.40;4.20;;;15.10;99.90;;;;;;6276071;22;20094;-77
2023/06/02 07:58:56;;;;;;;19.52;3.50;;;15.30;99.90;;;;;;6276646;22;20182;-78
2023/06/02 08:01:22;;;;;;;19.52;4.30;;;15.50;99.90;;;;;;6300752;22;20008;-79
2023/06/02 08:03:47;;;;;;;21.05;4.28;;;15.70;99.90;;;;;;6301471;22;20018;-78
2023/06/02 08:06:13;;;;;;;13.27;3.28;;;15.80;99.90;;;;;;6327220;22;20092;-78
2023/06/02 08:08:39;;;;;;;16.25;3.50;;;15.90;99.90;;;;;;6275457;22;20023;-78
2023/06/02 08:11:05;;;;;;;13.73;3.70;;;15.90;99.90;;;;;;6277103;22;20015;-78
2023/06/02 08:13:30;;;;;;;16.00;3.63;;;15.90;99.90;;;;;;6275580;22;20011;-78
2023/06/02 08:15:57;;;;;;;13.82;3.45;;;16.00;99.90;;;;;;6249966;22;20023;-77
2023/06/02 08:18:23;;;;;;;15.00;3.40;;;16.10;99.90;;;;;;6277382;22;20010;-79
2023/06/02 08:20:48;;;;;;;14.80;3.50;;;16.30;99.90;;;;;;6301346;22;20433;-77
2023/06/02 08:23:14;;;;;;;18.08;4.28;;;16.40;99.90;;;;;;6327443;22;20134;-78
2023/06/02 08:25:40;;;;;;;13.10;3.17;;;16.50;99.90;;;;;;6249923;22;20011;-78
2023/06/02 08:28:07;;;;;;;15.55;3.60;;;16.60;99.90;;;;;;6301121;22;20400;-77
2023/06/02 08:30:36;;;;;;;14.45;3.20;;;16.60;99.90;;;;;;6249924;22;20011;-85
2023/06/02 08:33:03;;;;;;;14.27;2.88;;;16.70;99.90;;;;;;6324515;22;20023;-85
2023/06/02 08:35:30;;;;;;;12.50;2.88;;;16.80;99.90;;;;;;6249738;22;20007;-85
2023/06/02 08:37:55;;;;;;;12.43;3.08;;;16.90;99.90;;;;;;6249679;22;20063;-86
2023/06/02 08:40:25;;;;;;;12.85;3.13;;;16.90;99.90;;;;;;6275584;22;20137;-85
2023/06/02 08:42:51;;;;;;;9.23;2.45;;;16.90;99.90;;;;;;6275068;22;20008;-85
2023/06/02 08:45:20;;;;;;;12.93;2.63;;;17.00;99.90;;;;;;6276883;22;20019;-80
2023/06/02 08:47:50;;;;;;;14.40;2.50;;;17.10;99.90;;;;;;6249720;22;20016;-79
2023/06/02 08:50:16;;;;;;;14.63;2.88;;;17.30;99.90;;;;;;6249766;22;20489;-80
2023/06/02 08:52:45;;;;;;;11.90;2.72;;;17.50;99.90;;;;;;6274800;22;20054;-76
2023/06/02 08:55:11;;;;;;;12.80;3.10;;;17.50;99.90;;;;;;6274440;22;20086;-74
2023/06/02 08:57:37;;;;;;;12.57;2.70;;;17.60;99.90;;;;;;6273532;22;20015;-75
2023/06/02 09:00:04;;;;;;;12.98;2.33;;;17.80;99.90;;;;;;6244864;22;20008;-75
2023/06/02 09:02:30;;;;;;;7.90;1.98;;;17.90;99.90;;;;;;6274971;22;20344;-75
2023/06/02 09:04:56;;;;;;;11.57;2.58;;;18.10;99.90;;;;;;6249744;22;20086;-76
2023/06/02 09:07:22;;;;;;;11.27;2.58;;;18.30;99.90;;;;;;6276044;22;20046;-75
2023/06/02 09:09:52;;;;;;;8.68;2.60;;;18.10;99.90;;;;;;6326388;22;20011;-75
2023/06/02 09:12:19;;;;;;;10.98;2.80;;;18.10;99.90;;;;;;6275152;22;20011;-76
2023/06/02 09:14:47;;;;;;;8.80;2.53;;;18.10;99.90;;;;;;6275102;22;20012;-76
2023/06/02 09:17:30;;;;;;;11.90;2.65;;;18.00;99.90;;;;;;6275459;22;20012;-76
2023/06/02 09:19:58;;;;;;;10.20;2.65;;;18.10;99.90;;;;;;6274147;22;20011;-76
2023/06/02 09:22:24;;;;;;;8.05;2.03;;;18.30;99.90;;;;;;6249418;22;20012;-77
2023/06/02 09:24:53;;;;;;;11.98;2.45;;;18.40;99.90;;;;;;6275428;22;20039;-76
2023/06/02 09:27:19;;;;;;;10.20;2.15;;;18.40;99.90;;;;;;6249430;22;20011;-76
2023/06/02 09:29:46;;;;;;;8.65;2.20;;;18.30;99.90;;;;;;6273897;22;20033;-76
2023/06/02 09:32:14;;;;;;;8.32;2.25;;;18.20;99.90;;;;;;6249556;22;20396;-76
2023/06/02 09:34:40;;;;;;;9.45;2.08;;;18.10;99.90;;;;;;6275344;22;20007;-76
2023/06/02 09:37:09;;;;;;;7.53;2.00;;;18.00;99.90;;;;;;6274940;22;20012;-76
2023/06/02 09:39:42;;;;;;;7.45;1.88;;;17.80;99.90;;;;;;6274376;22;20474;-76
2023/06/02 09:42:08;;;;;;;9.23;2.00;;;17.70;99.90;;;;;;6249546;22;20342;-77
2023/06/02 09:44:34;;;;;;;8.05;1.90;;;17.80;99.90;;;;;;6299847;22;20077;-77
2023/06/02 09:47:02;;;;;;;3.67;1.27;;;17.90;99.90;;;;;;6276915;22;20384;-76
2023/06/02 09:49:39;;;;;;;8.63;1.90;;;18.00;99.90;;;;;;6249209;22;20019;-76
2023/06/02 09:52:15;;;;;;;7.10;1.60;;;17.90;99.90;;;;;;6249438;22;20007;-76
2023/06/02 09:54:45;;;;;;;7.93;1.98;;;17.90;99.90;;;;;;6273907;22;20051;-76
2023/06/02 09:57:12;;;;;;;3.45;1.20;;;17.80;99.90;;;;;;6276714;22;20017;-76
2023/06/02 09:59:39;;;;;;;12.68;2.05;;;17.90;99.90;;;;;;6275645;22;20517;-85
2023/06/02 10:02:08;;;;;;;6.15;1.75;;;17.90;99.90;;;;;;6276811;22;20007;-78
2023/06/02 10:04:33;;;;;;;7.20;1.38;;;18.00;99.90;;;;;;6275855;22;20418;-77
2023/06/02 10:07:19;;;;;;;6.07;1.67;;;18.20;99.90;;;;;;6275943;22;20345;-76
2023/06/02 10:10:07;;;;;;;7.05;1.40;;;18.30;99.90;;;;;;6275131;22;20016;-77
2023/06/02 10:12:52;;;;;;;8.48;1.83;;;18.30;99.90;;;;;;6326400;22;20016;-77
2023/06/02 10:15:35;;;;;;;6.05;1.42;;;18.10;99.90;;;;;;6275287;22;20023;-78
2023/06/02 10:18:00;;;;;;;8.05;2.10;;;18.10;99.90;;;;;;6328495;22;20133;-78
2023/06/02 10:20:46;;;;;;;8.48;1.85;;;18.20;99.90;;;;;;6328318;22;20410;-78
2023/06/02 10:23:37;;;;;;;5.88;1.77;;;18.00;99.90;;;;;;6276088;22;20011;-78
2023/06/02 10:26:08;;;;;;;7.13;1.83;;;18.00;99.90;;;;;;6249612;22;20023;-77
2023/06/02 10:28:34;;;;;;;6.13;1.70;;;18.10;99.90;;;;;;6250138;22;20047;-78
2023/06/02 10:31:08;;;;;;;8.68;1.92;;;18.30;99.90;;;;;;6250780;22;20066;-77
2023/06/02 10:33:44;;;;;;;6.80;1.60;;;18.10;99.90;;;;;;6276992;22;20078;-77
2023/06/02 10:36:12;;;;;;;8.13;1.40;;;18.00;99.90;;;;;;6276465;22;20035;-79
2023/06/02 10:38:38;;;;;;;6.47;2.00;;;18.20;99.90;;;;;;6275689;22;20007;-78
2023/06/02 10:41:04;;;;;;;7.15;1.80;;;18.30;99.90;;;;;;6328635;22;20004;-76
2023/06/02 10:43:34;;;;;;;6.30;1.83;;;18.10;99.90;;;;;;6328047;22;20501;-78
2023/06/02 10:46:16;;;;;;;7.78;1.90;;;18.20;99.90;;;;;;6250929;22;20019;-78
2023/06/02 10:48:42;;;;;;;5.38;1.42;;;18.20;99.90;;;;;;6276264;22;20341;-78
2023/06/02 10:51:10;;;;;;;7.68;1.55;;;18.40;99.90;;;;;;6277775;22;20018;-78
2023/06/02 10:53:58;;;;;;;6.72;1.60;;;18.50;99.90;;;;;;6275358;22;20011;-78
2023/06/02 10:56:39;;;;;;;5.13;1.50;;;18.70;99.90;;;;;;6264937;22;20016;-78
2023/06/02 10:59:05;;;;;;;8.55;1.60;;;18.60;99.90;;;;;;6275527;22;20008;-78
2023/06/02 11:01:54;;;;;;;4.55;1.40;;;18.70;99.90;;;;;;6250153;22;20464;-78
2023/06/02 11:04:31;;;;;;;3.60;1.35;;;18.90;99.90;;;;;;6272689;22;20011;-78
2023/06/02 11:07:21;;;;;;;4.95;1.35;;;19.00;99.90;;;;;;6250592;22;20089;-78
2023/06/02 11:09:54;;;;;;;8.88;1.70;;;19.10;99.90;;;;;;6276118;22;20019;-78
2023/06/02 11:12:20;;;;;;;4.03;1.33;;;19.30;99.90;;;;;;6276544;22;20008;-83
2023/06/02 11:15:01;;;;;;;6.47;1.70;;;19.30;99.90;;;;;;6301114;22;20011;-81
2023/06/02 11:17:31;;;;;;;6.57;1.50;;;19.20;99.40;;;;;;6250521;22;20015;-81
2023/06/02 11:19:57;;;;;;;6.35;1.50;;;19.20;99.90;;;;;;6250545;22;20542;-81
2023/06/02 11:22:24;;;;;;;6.57;1.30;;;19.20;99.70;;;;;;6328166;22;20464;-88
2023/06/02 11:24:52;;;;;;;3.25;1.20;;;19.20;99.90;;;;;;6250225;22;20012;-84
2023/06/02 11:27:19;;;;;;;6.38;1.40;;;19.10;99.90;;;;;;6250232;22;20322;-83
2023/06/02 11:29:44;;;;;;;3.88;1.35;;;19.10;99.90;;;;;;6275241;22;20095;-81
2023/06/02 11:32:13;;;;;;;4.90;1.45;;;19.30;99.70;;;;;;6301384;22;20043;-82
2023/06/02 11:34:39;;;;;;;5.57;1.75;;;19.30;98.10;;;;;;6275624;22;20337;-81
2023/06/02 11:37:20;;;;;;;5.10;1.67;;;19.30;99.30;;;;;;6275404;22;20086;-82
2023/06/02 11:39:53;;;;;;;6.78;1.40;;;19.30;99.90;;;;;;6301691;22;20008;-83
2023/06/02 11:42:18;;;;;;;7.28;1.77;;;19.30;98.40;;;;;;6250492;22;20011;-86
2023/06/02 11:44:51;;;;;;;5.35;1.52;;;19.30;98.00;;;;;;6299454;22;20091;-79
2023/06/02 11:47:20;;;;;;;10.65;1.80;;;19.30;99.00;;;;;;6276806;22;20012;-78
2023/06/02 11:49:47;;;;;;;5.32;1.50;;;19.30;99.90;;;;;;6250226;22;20012;-77
2023/06/02 11:52:13;;;;;;;6.03;1.50;;;19.40;99.90;;;;;;6275843;22;20047;-77
2023/06/02 11:54:52;;;;;;;7.70;2.00;;;19.30;99.90;;;;;;6276801;22;20358;-77
2023/06/02 11:57:27;;;;;;;7.20;1.60;;;19.10;99.90;;;;;;6250665;22;20467;-77
2023/06/02 12:00:11;;;;;;;5.80;1.70;;;18.90;99.80;;;;;;6273900;22;20008;-77
2023/06/02 12:02:43;;;;;;;6.93;1.83;;;18.90;98.60;;;;;;6275361;22;20004;-78
2023/06/02 12:05:32;;;;;;;5.10;1.40;;;19.00;99.90;;;;;;6275600;22;20055;-78
2023/06/02 12:08:07;;;;;;;8.60;1.92;;;19.10;99.90;;;;;;6275337;22;20015;-77
2023/06/02 12:10:34;;;;;;;7.95;2.22;;;19.30;99.90;;;;;;6249634;22;20015;-78
2023/06/02 12:13:00;;;;;;;6.22;1.80;;;19.50;99.90;;;;;;6327632;22;20126;-80
2023/06/02 12:15:37;;;;;;;8.63;2.00;;;19.60;99.90;;;;;;6249647;22;20041;-77
2023/06/02 12:18:08;;;;;;;7.85;1.80;;;19.50;99.90;;;;;;6275148;22;20018;-79
2023/06/02 12:20:40;;;;;;;8.20;1.75;;;19.50;99.90;;;;;;6276059;22;20086;-78
2023/06/02 12:23:09;;;;;;;5.60;1.70;;;19.30;99.90;;;;;;6248648;22;20330;-78
2023/06/02 12:25:36;;;;;;;7.05;2.10;;;19.30;99.90;;;;;;6249114;22;20499;-79
2023/06/02 12:28:15;;;;;;;5.50;1.90;;;19.40;99.90;;;;;;6275436;22;20468;-78
2023/06/02 12:30:41;;;;;;;8.43;2.25;;;19.50;99.90;;;;;;6326950;22;20077;-78
2023/06/02 12:33:07;;;;;;;7.03;1.92;;;19.70;99.90;;;;;;6327463;22;20016;-78
2023/06/02 12:35:33;;;;;;;5.53;2.00;;;19.70;99.90;;;;;;6327334;22;20441;-78
2023/06/02 12:37:58;;;;;;;8.88;1.90;;;19.60;99.90;;;;;;6300597;22;20012;-78
2023/06/02 12:40:24;;;;;;;9.60;2.20;;;19.50;99.90;;;;;;6327067;22;20475;-79
2023/06/02 12:42:49;;;;;;;5.45;1.70;;;19.40;99.90;;;;;;6327479;22;20392;-79
2023/06/02 12:45:15;;;;;;;6.25;2.25;;;19.20;99.90;;;;;;6300591;22;20008;-80